x

South Georgian Bay (45143) Wave Buoy

10:00am - Sat 1st Oct 2016 All times are CDT. -5 hours from GMT.

  • Sig Wave height 3.6ft
  • Peak Period 4s
  • Wind
    18mph, 25mph gusts
  • Sea Temp 64°f
  • Air Temp 58°f
  • Sea Pressure 1021.8mb
  • South Georgian Bay
  • South Georgian Bay

More Historic Weather Station data

Upgrade to MSW Pro to gain access to the past 30 days of data for over 8000 Wavebouys and Weather Stations around the globe.

Join Pro

Comparision Forecast

View Surf forecast
   
Sat 10/01 10:00am 3.5ft 4s 18 25 mph 1021.8mb 64f 58f
9:00am 4ft 4s 22 27 mph 1021.6mb 64f 58f
8:00am 3.5ft 4s 25 29 mph 1021.8mb 64f 58f
7:00am 3.5ft 4s 22 27 mph 1022.3mb 64f 58f
6:00am 3.5ft 4s 20 25 mph 1022.6mb 64f 58f
5:00am 3.5ft 4s 20 25 mph 1022.6mb 64f 58f
4:00am 3ft 4s 22 25 mph 1022.5mb 64f 59f
3:00am 3.5ft 4s 20 25 mph 1022.6mb 64f 59f
2:00am 3.5ft 4s 20 25 mph 1023.1mb 64f 59f
1:00am 3.5ft 4s 22 27 mph 1023.4mb 64f 60f
12:00am 3.5ft 4s 22 27 mph 1023.9mb 64f 60f
Fri 09/30 11:00pm 3.5ft 4s 22 27 mph 1024.2mb 64f 61f
10:00pm 3.5ft 4s 22 27 mph 1024.5mb 65f 62f
9:00pm 3.5ft 4s 22 27 mph 1024.8mb 65f 62f
8:00pm 3.5ft 4s 22 29 mph 1024.9mb 65f 63f
7:00pm 3ft 4s 25 31 mph 1024.7mb 65f 64f
5:00pm 3ft 4s 22 25 mph 1025.1mb 65f 65f
4:00pm 2.5ft 4s 20 25 mph 1025mb 65f 64f
3:00pm 2.5ft 4s 18 20 mph 1025.5mb 65f 64f
2:00pm 3ft 4s 18 22 mph 1025.7mb 65f 64f
1:00pm 3.5ft 4s 18 22 mph 1026.2mb 65f 63f
12:00pm 3.5ft 4s 20 25 mph 1027.1mb 65f 62f
11:00am 3.5ft 4s 20 22 mph 1027.5mb 65f 60f
10:00am 3.5ft 4s 22 25 mph 1027.9mb 65f 60f
9:00am 3.5ft 4s 20 25 mph 1028.1mb 65f 60f
8:00am 3.5ft 4s 20 22 mph 1028mb 65f 60f
7:00am 3.5ft 4s 20 22 mph 1027.8mb 65f 60f
6:00am 3.5ft 4s 22 27 mph 1028mb 65f 60f
5:00am 3.5ft 4s 22 25 mph 1027.8mb 65f 61f
4:00am 3.5ft 4s 22 25 mph 1027.6mb 65f 61f
3:00am 4ft 4s 20 25 mph 1027.5mb 65f 61f
2:00am 3.5ft 5s 22 27 mph 1027.5mb 65f 61f
1:00am 3.5ft 4s 22 27 mph 1028mb 65f 61f
12:00am 3.5ft 5s 25 29 mph 1028mb 65f 61f
Thu 09/29 11:00pm 4ft 4s 22 27 mph 1028.8mb 65f 62f
10:00pm 4ft 4s 22 29 mph 1028.5mb 65f 62f
9:00pm 4ft 4s 20 27 mph 1028.4mb 65f 63f
8:00pm 4ft 4s 22 27 mph 1028.7mb 65f 63f
7:00pm 3.5ft 4s 20 27 mph 1028.6mb 65f 63f
6:00pm 3.5ft 4s 22 25 mph 1028.5mb 65f 63f
5:00pm 3.5ft 4s 22 27 mph 1028.2mb 65f 64f
4:00pm 3.5ft 4s 22 27 mph 1027.9mb 65f 64f
3:00pm 3.5ft 4s 18 22 mph 1028mb 65f 63f
2:00pm 3.5ft 4s 20 25 mph 1027.8mb 66f 63f
1:00pm 3.5ft 4s 20 25 mph 1027.7mb 66f 62f
12:00pm 3ft 4s 18 22 mph 1028.1mb 66f 63f
11:00am 3.5ft 4s 20 25 mph 1028.1mb 66f 62f
10:00am 4ft 4s 20 25 mph 1028.1mb 65f 60f
9:00am 4ft 5s 22 29 mph 1028.1mb 65f 59f
8:00am 4ft 5s 20 27 mph 1027.8mb 65f 59f
7:00am 4.5ft 4s 22 27 mph 1027.5mb 65f 59f
6:00am 4ft 4s 25 29 mph 1026.7mb 65f 59f
5:00am 4.5ft 4s 22 29 mph 1026.3mb 66f 60f
4:00am 4ft 5s 25 29 mph 1025.2mb 66f 60f
3:00am 4ft 5s 22 27 mph 1025mb 66f 61f
2:00am 4.5ft 5s 22 27 mph 1024.5mb 66f 62f
1:00am 4.5ft 5s 25 29 mph 1024.2mb 66f 62f
12:00am 4.5ft 5s 25 29 mph 1023.9mb 66f 63f
Wed 09/28 11:00pm 4ft 4s 25 29 mph 1023.6mb 66f 63f
10:00pm 3.5ft 4s 25 29 mph 1023.3mb 66f 64f
9:00pm 2.5ft 3s 25 29 mph 1022.7mb 66f 65f
8:00pm 2ft 3s 16 20 mph 1022.2mb 66f 67f
7:00pm 1.6ft 3s 16 18 mph 1021.3mb 66f 68f
6:00pm 1.3ft 3s 16 18 mph 1020.5mb 66f 68f
5:00pm 1.3ft 3s 13 16 mph 1020mb 66f 68f
4:00pm 1.3ft 3s 11 13 mph 1019.3mb 66f 68f
3:00pm 1.6ft 3s 11 13 mph 1018.5mb 66f 68f
2:00pm 2ft 3s 13 16 mph 1018mb 66f 67f
1:00pm 2.5ft 4s 16 20 mph 1017.7mb 66f 66f
12:00pm 2.5ft 4s 18 20 mph 1017.4mb 66f 65f
11:00am 2ft 4s 13 18 mph 1017.2mb 66f 64f
10:00am 2ft 4s 11 13 mph 1017.2mb 66f 63f
9:00am 2ft 4s 13 16 mph 1016.3mb 66f 62f
8:00am 1.6ft 3s 13 16 mph 1015.7mb 66f 62f
7:00am 1.6ft 3s 11 13 mph 1014.9mb 66f 62f
6:00am 2ft 4s 13 18 mph 1014.3mb 66f 62f
5:00am 2ft 3s 16 18 mph 1013.4mb 66f 62f
4:00am 2ft 4s 13 16 mph 1012.9mb 66f 62f
3:00am 2ft 3s 13 16 mph 1012.4mb 66f 62f
2:00am 2ft 3s 18 22 mph 1012mb 66f 62f
1:00am 1.6ft 3s 18 22 mph 1011.6mb 66f 62f
12:00am 1ft 2s 16 18 mph 1011.3mb 66f 61f
Tue 09/27 11:00pm 0.7ft 2s 13 16 mph 1010.9mb 66f 60f
10:00pm 0.7ft 5s 11 13 mph 1010.3mb 66f 60f
9:00pm 1ft 2s 9 11 mph 1010.5mb 66f 58f
8:00pm 1ft 3s 2 4 mph 1009.6mb 66f 59f
7:00pm 1.6ft 3s 7 9 mph 1009mb 66f 59f
6:00pm 2ft 4s 20 25 mph 1008.5mb 66f 59f
5:00pm 3ft 4s 16 20 mph 1007.3mb 66f 60f